Aérodrome :
LOGIN :

S'inscrire | Disclaimer

   EN    FR    IT 

 










Légende :    VFR   VFR Marginal   IFR   IFR Intensif   IFR Très Intensif
Visi : 
Plafond : 
>= 8 km
>= 3000ft
5 à 8 km
1000 à 3000 ft
1500m à 5 km
500 à 1000 ft
800 à 1500m
200 à 500 ft
< 800m
< 200 ft
Symboles :   Orages  Brouillard  Fortes neiges  Fortes précipitations  Vent > 20 kt
SIGMETs :   Divers  Orages  Givrage  Turbulence  Onde Orograph.  Cendres Volcan.







- Altitude de l'aérodrome : 302 ft
- Code IATA : CGN


EDDK - Cologne Bonn

DERNIER METAR :
  • 151250Z VRB05KT CAVOK 25/08 Q1013 NOSIG

METARs EXPIRÉS :
  • 151220Z 20006KT 130V230 CAVOK 25/07 Q1013 NOSIG
  • 151150Z 18005KT 080V220 CAVOK 25/08 Q1013 NOSIG
  • 151120Z 16006KT 120V210 CAVOK 24/09 Q1013 NOSIG
  • 151050Z 16006KT 090V220 CAVOK 23/10 Q1013 NOSIG
  • 151020Z 12006KT 080V170 CAVOK 23/10 Q1014 NOSIG
  • 150950Z 14007KT 110V180 CAVOK 22/10 Q1013 NOSIG

TAF TAF EDDK
Valide du 15 à 12h jusqu'au 16 à 18h UTC


151100Z 1512/1618 13005KT CAVOK
Pas de NOTAMs connus pour ce terrain.



MET'MAP, la Météo Aéronautique d'un coup d'oeil ! - Copyright ORBIFLY Décembre 2007 - Disclaimer

ORBIFLY MET'MAP TEAM :

Programmation & Développement : Alexandra Zaïnal
Conception & Développement : Baudouin d'Aumeries
Co-Programmation & Développement : Marc-Olivier Méhu
Soutien technique & logistique : Manuel Goepfert

Contact : metmap@orbifly.com




SOURCES & CREDITS :

   NOAA